createdAt,value
2022-12-03T00:00:14.410Z,952.98
2022-12-03T00:01:14.406Z,952.99
2022-12-03T00:02:14.544Z,953.01
2022-12-03T00:03:14.584Z,953.04
2022-12-03T00:04:14.351Z,953.03
2022-12-03T00:05:14.327Z,952.98
2022-12-03T00:06:14.354Z,953.00
2022-12-03T00:07:14.331Z,952.98
2022-12-03T00:08:14.466Z,952.97
2022-12-03T00:09:14.275Z,952.94
2022-12-03T00:10:14.278Z,952.96
2022-12-03T00:11:14.265Z,952.99
2022-12-03T00:12:14.318Z,953.00
2022-12-03T00:13:14.264Z,953.00
2022-12-03T00:14:14.224Z,952.99
2022-12-03T00:15:14.195Z,952.99
2022-12-03T00:16:14.242Z,953.00
2022-12-03T00:17:14.158Z,953.09
2022-12-03T00:18:14.198Z,953.04
2022-12-03T00:19:14.150Z,953.07
2022-12-03T00:20:14.138Z,953.09
2022-12-03T00:21:14.119Z,953.07
2022-12-03T00:22:14.109Z,953.03
2022-12-03T00:23:14.116Z,953.04
2022-12-03T00:24:14.115Z,953.05
2022-12-03T00:25:14.061Z,953.04
2022-12-03T00:26:14.130Z,953.01
2022-12-03T00:27:14.064Z,953.03
2022-12-03T00:28:14.037Z,953.01
2022-12-03T00:29:14.117Z,953.04
2022-12-03T00:30:14.025Z,953.03
2022-12-03T00:31:14.071Z,953.04
2022-12-03T00:32:13.985Z,953.03
2022-12-03T00:33:13.960Z,953.03
2022-12-03T00:34:13.990Z,953.04
2022-12-03T00:35:13.939Z,953.00
2022-12-03T00:36:13.967Z,952.99
2022-12-03T00:37:13.912Z,953.07
2022-12-03T00:38:13.899Z,953.06
2022-12-03T00:39:13.906Z,953.08
2022-12-03T00:40:13.907Z,953.12
2022-12-03T00:41:13.857Z,953.11
2022-12-03T00:42:13.880Z,953.14
2022-12-03T00:43:13.847Z,953.15
2022-12-03T00:44:13.838Z,953.14
2022-12-03T00:45:13.802Z,953.15
2022-12-03T00:46:16.906Z,953.16
2022-12-03T00:47:13.986Z,953.11
2022-12-03T00:48:13.798Z,953.13
2022-12-03T00:49:13.748Z,953.12
2022-12-03T00:50:13.754Z,953.13
2022-12-03T00:51:13.753Z,953.10
2022-12-03T00:52:13.722Z,953.08
2022-12-03T00:53:13.696Z,953.09
2022-12-03T00:54:13.706Z,953.12
2022-12-03T00:55:13.695Z,953.18
2022-12-03T00:56:13.670Z,953.17
2022-12-03T00:57:13.651Z,953.14
2022-12-03T00:58:13.650Z,953.10
2022-12-03T00:59:13.623Z,953.15
2022-12-03T01:00:13.642Z,953.09
2022-12-03T01:01:13.660Z,953.13
2022-12-03T01:02:13.688Z,953.13
2022-12-03T01:03:13.570Z,953.17
2022-12-03T01:04:13.617Z,953.08
2022-12-03T01:05:13.608Z,953.07
2022-12-03T01:06:13.545Z,953.07
2022-12-03T01:07:13.550Z,953.07
2022-12-03T01:08:13.589Z,953.08
2022-12-03T01:09:13.490Z,953.08
2022-12-03T01:10:13.520Z,953.08
2022-12-03T01:11:13.494Z,953.10
2022-12-03T01:12:13.462Z,953.10
2022-12-03T01:13:13.466Z,953.16
2022-12-03T01:14:13.436Z,953.18
2022-12-03T01:15:13.422Z,953.17
2022-12-03T01:16:13.449Z,953.14
2022-12-03T01:17:13.395Z,953.13
2022-12-03T01:18:13.425Z,953.12
2022-12-03T01:19:13.382Z,953.08
2022-12-03T01:20:13.363Z,953.07
2022-12-03T01:21:13.329Z,953.09
2022-12-03T01:22:13.371Z,953.09
2022-12-03T01:23:13.315Z,953.09
2022-12-03T01:24:13.333Z,953.09
2022-12-03T01:25:13.304Z,953.13
2022-12-03T01:26:13.279Z,953.11
2022-12-03T01:27:13.245Z,953.10
2022-12-03T01:28:13.284Z,953.11
2022-12-03T01:29:13.246Z,953.10
2022-12-03T01:30:13.220Z,953.09
2022-12-03T01:31:13.276Z,953.10
2022-12-03T01:32:13.203Z,953.11
2022-12-03T01:33:13.198Z,953.07
2022-12-03T01:34:13.171Z,953.05
2022-12-03T01:35:13.154Z,953.06
2022-12-03T01:36:13.162Z,953.06
2022-12-03T01:37:13.160Z,953.08
2022-12-03T01:38:13.127Z,953.10
2022-12-03T01:39:13.101Z,953.08
2022-12-03T01:40:13.117Z,953.05
2022-12-03T01:41:13.070Z,953.05
2022-12-03T01:42:13.090Z,953.04
2022-12-03T01:43:13.049Z,953.06
2022-12-03T01:44:13.050Z,953.04
2022-12-03T01:45:13.020Z,953.03
2022-12-03T01:46:13.112Z,953.06
2022-12-03T01:47:12.992Z,953.04
2022-12-03T01:48:12.991Z,953.07
2022-12-03T01:49:12.968Z,953.01
2022-12-03T01:50:12.960Z,953.07
2022-12-03T01:51:12.967Z,953.05
2022-12-03T01:52:12.963Z,953.07
2022-12-03T01:53:12.912Z,953.06
2022-12-03T01:54:12.914Z,953.05
2022-12-03T01:55:12.888Z,953.08
2022-12-03T01:56:12.909Z,953.10
2022-12-03T01:57:12.858Z,953.10
2022-12-03T01:58:12.862Z,953.16
2022-12-03T01:59:12.851Z,953.11
2022-12-03T02:00:12.842Z,953.11
2022-12-03T02:01:12.842Z,953.04
2022-12-03T02:02:12.916Z,953.06
2022-12-03T02:03:12.815Z,953.06
2022-12-03T02:04:12.853Z,953.05
2022-12-03T02:05:12.756Z,953.08
2022-12-03T02:06:12.759Z,953.06
2022-12-03T02:07:12.740Z,953.05
2022-12-03T02:08:12.779Z,953.06
2022-12-03T02:09:12.715Z,953.05
2022-12-03T02:10:12.701Z,953.04
2022-12-03T02:11:12.718Z,953.06
2022-12-03T02:12:12.681Z,953.04
2022-12-03T02:13:12.652Z,953.04
2022-12-03T02:14:12.652Z,953.04
2022-12-03T02:15:12.627Z,953.06
2022-12-03T02:16:12.750Z,953.06
2022-12-03T02:17:12.597Z,953.06
2022-12-03T02:18:12.592Z,953.03
2022-12-03T02:19:12.606Z,952.97
2022-12-03T02:20:12.573Z,953.00
2022-12-03T02:21:12.554Z,952.96
2022-12-03T02:22:12.553Z,952.94
2022-12-03T02:23:12.516Z,952.97
2022-12-03T02:24:12.545Z,952.96
2022-12-03T02:25:12.487Z,952.96
2022-12-03T02:26:12.565Z,952.99
2022-12-03T02:27:12.475Z,952.99
2022-12-03T02:28:12.460Z,953.01
2022-12-03T02:29:12.467Z,952.95
2022-12-03T02:30:12.437Z,952.99
2022-12-03T02:31:12.494Z,952.96
2022-12-03T02:32:12.418Z,953.01
2022-12-03T02:33:12.405Z,953.00
2022-12-03T02:34:12.410Z,953.00
2022-12-03T02:35:12.379Z,952.94
2022-12-03T02:36:12.379Z,952.89
2022-12-03T02:37:12.348Z,952.90
2022-12-03T02:38:12.325Z,952.88
2022-12-03T02:39:12.353Z,952.89
2022-12-03T02:40:12.298Z,952.88
2022-12-03T02:41:12.295Z,952.88
2022-12-03T02:42:12.271Z,952.85
2022-12-03T02:43:12.269Z,952.83
2022-12-03T02:44:12.292Z,952.86
2022-12-03T02:45:12.266Z,952.87
2022-12-03T02:46:12.289Z,952.84
2022-12-03T02:47:12.275Z,952.81
2022-12-03T02:48:12.233Z,952.84
2022-12-03T02:49:12.181Z,952.83
2022-12-03T02:50:12.193Z,952.85
2022-12-03T02:51:12.162Z,952.86
2022-12-03T02:52:12.146Z,952.86
2022-12-03T02:53:12.143Z,952.84
2022-12-03T02:54:12.148Z,952.82
2022-12-03T02:55:12.120Z,952.82
2022-12-03T02:56:12.082Z,952.81
2022-12-03T02:57:12.085Z,952.81
2022-12-03T02:58:12.072Z,952.82
2022-12-03T02:59:12.086Z,952.80
2022-12-03T03:00:12.035Z,952.77
2022-12-03T03:01:12.157Z,952.74
2022-12-03T03:02:12.084Z,952.76
2022-12-03T03:03:12.010Z,952.74
2022-12-03T03:04:12.025Z,952.81
2022-12-03T03:05:11.988Z,952.78
2022-12-03T03:06:11.962Z,952.81
2022-12-03T03:07:11.955Z,952.81
2022-12-03T03:08:11.993Z,952.78
2022-12-03T03:09:11.956Z,952.75
2022-12-03T03:10:11.905Z,952.78
2022-12-03T03:11:11.946Z,952.77
2022-12-03T03:12:11.933Z,952.81
2022-12-03T03:13:11.909Z,952.85
2022-12-03T03:14:11.856Z,952.90
2022-12-03T03:15:11.857Z,952.91
2022-12-03T03:16:11.896Z,952.93
2022-12-03T03:17:11.850Z,952.89
2022-12-03T03:18:11.804Z,952.90
2022-12-03T03:19:12.179Z,952.88
2022-12-03T03:20:11.775Z,952.92
2022-12-03T03:21:11.797Z,952.84
2022-12-03T03:22:11.770Z,952.85
2022-12-03T03:23:11.747Z,952.87
2022-12-03T03:24:11.720Z,952.89
2022-12-03T03:25:11.745Z,952.87
2022-12-03T03:26:11.693Z,952.87
2022-12-03T03:27:11.717Z,952.86
2022-12-03T03:28:11.671Z,952.89
2022-12-03T03:29:11.684Z,952.92
2022-12-03T03:30:11.644Z,952.91
2022-12-03T03:31:11.722Z,952.90
2022-12-03T03:32:11.703Z,952.92
2022-12-03T03:33:11.610Z,952.91
2022-12-03T03:34:11.620Z,952.91
2022-12-03T03:35:11.594Z,952.86
2022-12-03T03:36:11.612Z,952.89
2022-12-03T03:37:11.598Z,952.94
2022-12-03T03:38:11.533Z,952.99
2022-12-03T03:39:11.562Z,952.97
2022-12-03T03:40:11.525Z,952.95
2022-12-03T03:41:11.518Z,953.00
2022-12-03T03:42:11.489Z,952.98
2022-12-03T03:43:11.510Z,952.93
2022-12-03T03:44:11.466Z,952.92
2022-12-03T03:45:11.461Z,952.86
2022-12-03T03:46:11.495Z,952.80
2022-12-03T03:47:11.432Z,952.81
2022-12-03T03:48:11.433Z,952.86
2022-12-03T03:49:11.412Z,952.91
2022-12-03T03:50:11.515Z,952.93
2022-12-03T03:51:11.380Z,952.93
2022-12-03T03:52:11.386Z,952.92
2022-12-03T03:53:11.353Z,952.92
2022-12-03T03:54:11.332Z,952.88
2022-12-03T03:55:11.336Z,952.89
2022-12-03T03:56:11.304Z,952.90
2022-12-03T03:57:11.331Z,952.94
2022-12-03T03:58:11.286Z,952.93
2022-12-03T03:59:11.275Z,952.90
2022-12-03T04:00:11.281Z,952.91
2022-12-03T04:01:11.324Z,952.91
2022-12-03T04:02:11.224Z,952.89
2022-12-03T04:03:11.217Z,952.91
2022-12-03T04:04:11.269Z,952.83
2022-12-03T04:05:11.215Z,952.84
2022-12-03T04:06:11.217Z,952.88
2022-12-03T04:07:11.172Z,952.90
2022-12-03T04:08:11.291Z,952.90
2022-12-03T04:09:11.166Z,952.91
2022-12-03T04:10:11.122Z,952.92
2022-12-03T04:11:11.118Z,952.97
2022-12-03T04:12:11.097Z,952.92
2022-12-03T04:13:11.103Z,952.93
2022-12-03T04:14:11.069Z,952.93
2022-12-03T04:15:11.067Z,952.92
2022-12-03T04:16:11.095Z,952.93
2022-12-03T04:17:11.038Z,952.90
2022-12-03T04:18:11.046Z,952.90
2022-12-03T04:19:11.008Z,952.93
2022-12-03T04:20:10.984Z,952.95
2022-12-03T04:21:11.013Z,952.93
2022-12-03T04:22:10.960Z,952.94
2022-12-03T04:23:10.953Z,952.91
2022-12-03T04:24:10.973Z,952.89
2022-12-03T04:25:10.936Z,952.93
2022-12-03T04:26:10.918Z,952.94
2022-12-03T04:27:10.910Z,952.91
2022-12-03T04:28:10.883Z,952.91
2022-12-03T04:29:10.899Z,952.91
2022-12-03T04:30:10.862Z,952.93
2022-12-03T04:31:10.901Z,952.89
2022-12-03T04:32:10.850Z,952.92
2022-12-03T04:33:10.829Z,952.91
2022-12-03T04:34:10.857Z,952.96
2022-12-03T04:35:10.862Z,952.97
2022-12-03T04:36:10.776Z,952.93
2022-12-03T04:37:10.771Z,952.95
2022-12-03T04:38:10.757Z,952.90
2022-12-03T04:39:10.758Z,952.84
2022-12-03T04:40:10.760Z,952.86
2022-12-03T04:41:10.740Z,952.85
2022-12-03T04:42:10.722Z,952.86
2022-12-03T04:43:10.699Z,952.80
2022-12-03T04:44:10.673Z,952.82
2022-12-03T04:45:10.668Z,952.80
2022-12-03T04:46:10.715Z,952.80
2022-12-03T04:47:10.644Z,952.81
2022-12-03T04:48:10.655Z,952.86
2022-12-03T04:49:10.623Z,952.87
2022-12-03T04:50:10.632Z,952.83
2022-12-03T04:51:10.587Z,952.86
2022-12-03T04:52:10.573Z,952.89
2022-12-03T04:53:10.605Z,952.90
2022-12-03T04:54:10.540Z,952.95
2022-12-03T04:55:10.536Z,952.91
2022-12-03T04:56:10.520Z,952.91
2022-12-03T04:57:10.516Z,952.88
2022-12-03T04:58:10.493Z,952.90
2022-12-03T04:59:15.722Z,952.91
2022-12-03T05:00:10.499Z,952.94
2022-12-03T05:01:10.516Z,952.94
2022-12-03T05:02:10.453Z,952.92
2022-12-03T05:03:10.438Z,952.95
2022-12-03T05:04:10.419Z,952.94
2022-12-03T05:05:10.452Z,952.98
2022-12-03T05:06:10.398Z,952.97
2022-12-03T05:07:10.384Z,952.97
2022-12-03T05:08:10.444Z,953.00
2022-12-03T05:09:10.395Z,952.98
2022-12-03T05:10:10.340Z,952.97
2022-12-03T05:11:10.367Z,952.96
2022-12-03T05:12:10.334Z,952.96
2022-12-03T05:13:10.308Z,952.94
2022-12-03T05:14:10.283Z,952.92
2022-12-03T05:15:10.320Z,952.93
2022-12-03T05:16:10.392Z,952.94
2022-12-03T05:17:10.337Z,952.93
2022-12-03T05:18:10.232Z,952.91
2022-12-03T05:19:10.247Z,952.89
2022-12-03T05:20:10.198Z,952.89
2022-12-03T05:21:10.215Z,952.91
2022-12-03T05:22:10.206Z,952.94
2022-12-03T05:23:10.194Z,952.93
2022-12-03T05:24:10.183Z,952.93
2022-12-03T05:25:10.148Z,952.88
2022-12-03T05:26:10.121Z,952.91
2022-12-03T05:27:10.123Z,952.95
2022-12-03T05:28:10.101Z,952.87
2022-12-03T05:29:10.130Z,952.86
2022-12-03T05:30:10.081Z,952.84
2022-12-03T05:31:10.183Z,952.82
2022-12-03T05:32:10.051Z,952.82
2022-12-03T05:33:10.052Z,952.79
2022-12-03T05:34:10.033Z,952.83
2022-12-03T05:35:10.050Z,952.83
2022-12-03T05:36:10.023Z,952.79
2022-12-03T05:37:09.993Z,952.78
2022-12-03T05:38:09.978Z,952.78
2022-12-03T05:39:09.964Z,952.76
2022-12-03T05:40:09.969Z,952.79
2022-12-03T05:41:09.959Z,952.81
2022-12-03T05:42:09.944Z,952.79
2022-12-03T05:43:09.924Z,952.81
2022-12-03T05:44:09.900Z,952.79
2022-12-03T05:45:09.898Z,952.84
2022-12-03T05:46:09.929Z,952.79
2022-12-03T05:47:09.877Z,952.77
2022-12-03T05:48:09.846Z,952.79
2022-12-03T05:49:09.837Z,952.80
2022-12-03T05:50:09.817Z,952.77
2022-12-03T05:51:09.842Z,952.79
2022-12-03T05:52:09.832Z,952.80
2022-12-03T05:53:09.869Z,952.80
2022-12-03T05:54:09.768Z,952.80
2022-12-03T05:55:09.757Z,952.75
2022-12-03T05:56:09.780Z,952.85
2022-12-03T05:57:09.725Z,952.82
2022-12-03T05:58:09.733Z,952.86
2022-12-03T05:59:09.731Z,952.87
2022-12-03T06:00:09.708Z,952.85
2022-12-03T06:01:09.709Z,952.89
2022-12-03T06:02:09.726Z,952.83
2022-12-03T06:03:09.888Z,952.86
2022-12-03T06:04:09.768Z,952.88
2022-12-03T06:05:09.637Z,952.89
2022-12-03T06:06:09.618Z,952.86
2022-12-03T06:07:13.756Z,952.89
2022-12-03T06:08:09.630Z,952.87
2022-12-03T06:09:09.567Z,952.87
2022-12-03T06:10:09.552Z,952.86
2022-12-03T06:11:09.552Z,952.90
2022-12-03T06:12:09.555Z,952.90
2022-12-03T06:13:09.585Z,952.91
2022-12-03T06:14:09.502Z,952.92
2022-12-03T06:15:09.508Z,952.91
2022-12-03T06:16:09.591Z,952.93
2022-12-03T06:17:09.481Z,952.96
2022-12-03T06:18:09.659Z,952.98
2022-12-03T06:19:09.478Z,952.93
2022-12-03T06:20:09.424Z,952.96
2022-12-03T06:21:09.423Z,952.98
2022-12-03T06:22:09.397Z,953.02
2022-12-03T06:23:09.419Z,953.00
2022-12-03T06:24:09.371Z,952.96
2022-12-03T06:25:09.366Z,952.97
2022-12-03T06:26:09.355Z,952.94
2022-12-03T06:27:09.369Z,952.98
2022-12-03T06:28:09.312Z,952.98
2022-12-03T06:29:09.305Z,953.00
2022-12-03T06:30:09.293Z,952.96
2022-12-03T06:31:09.412Z,952.93
2022-12-03T06:32:09.273Z,952.95
2022-12-03T06:33:09.286Z,953.00
2022-12-03T06:34:09.241Z,952.98
2022-12-03T06:35:09.229Z,953.00
2022-12-03T06:36:09.228Z,952.95
2022-12-03T06:37:09.216Z,952.94
2022-12-03T06:38:09.214Z,952.92
2022-12-03T06:39:09.177Z,952.92
2022-12-03T06:40:09.175Z,952.91
2022-12-03T06:41:09.145Z,952.86
2022-12-03T06:42:09.150Z,952.88
2022-12-03T06:43:09.155Z,952.92
2022-12-03T06:44:09.113Z,952.90
2022-12-03T06:45:09.138Z,952.87
2022-12-03T06:46:09.173Z,952.90
2022-12-03T06:47:09.066Z,952.89
2022-12-03T06:48:09.086Z,952.94
2022-12-03T06:49:09.041Z,952.94
2022-12-03T06:50:09.047Z,952.93
2022-12-03T06:51:09.013Z,952.99
2022-12-03T06:52:09.011Z,952.99
2022-12-03T06:53:09.010Z,953.01
2022-12-03T06:54:09.010Z,953.01
2022-12-03T06:55:08.999Z,952.99
2022-12-03T06:56:08.990Z,953.00
2022-12-03T06:57:08.962Z,953.02
2022-12-03T06:58:08.937Z,953.02
2022-12-03T06:59:08.925Z,953.03
2022-12-03T07:00:08.914Z,953.03
2022-12-03T07:01:08.922Z,953.00
2022-12-03T07:02:08.994Z,953.03
2022-12-03T07:03:08.950Z,953.01
2022-12-03T07:04:08.856Z,953.03
2022-12-03T07:05:08.861Z,953.00
2022-12-03T07:06:08.827Z,952.99
2022-12-03T07:07:08.832Z,953.04
2022-12-03T07:08:08.894Z,953.02
2022-12-03T07:09:08.783Z,953.01
2022-12-03T07:10:08.814Z,953.06
2022-12-03T07:11:08.766Z,953.03
2022-12-03T07:12:08.767Z,953.02
2022-12-03T07:13:08.731Z,953.02
2022-12-03T07:14:08.724Z,953.03
2022-12-03T07:15:08.738Z,952.98
2022-12-03T07:16:08.775Z,952.99
2022-12-03T07:17:08.681Z,953.03
2022-12-03T07:18:08.678Z,953.00
2022-12-03T07:19:08.645Z,953.06
2022-12-03T07:20:08.682Z,952.99
2022-12-03T07:21:08.638Z,953.02
2022-12-03T07:22:08.681Z,952.97
2022-12-03T07:23:08.592Z,953.02
2022-12-03T07:24:08.622Z,953.04
2022-12-03T07:25:08.581Z,953.03
2022-12-03T07:26:08.561Z,953.00
2022-12-03T07:27:08.551Z,953.00
2022-12-03T07:28:08.541Z,953.01
2022-12-03T07:29:08.542Z,953.00
2022-12-03T07:30:08.533Z,952.95
2022-12-03T07:31:08.505Z,952.99
2022-12-03T07:32:08.582Z,952.99
2022-12-03T07:33:08.495Z,953.00
2022-12-03T07:34:08.463Z,953.02
2022-12-03T07:35:08.474Z,953.06
2022-12-03T07:36:08.476Z,953.01
2022-12-03T07:37:08.447Z,953.03
2022-12-03T07:38:08.450Z,953.04
2022-12-03T07:39:08.390Z,953.06
2022-12-03T07:40:08.410Z,953.02
2022-12-03T07:41:08.367Z,953.09
2022-12-03T07:42:08.412Z,953.04
2022-12-03T07:43:08.341Z,952.99
2022-12-03T07:44:13.976Z,953.01
2022-12-03T07:45:08.315Z,953.00
2022-12-03T07:46:08.448Z,953.02
2022-12-03T07:47:08.343Z,953.00
2022-12-03T07:48:08.312Z,953.03
2022-12-03T07:49:08.257Z,953.07
2022-12-03T07:50:08.257Z,953.08
2022-12-03T07:51:10.526Z,953.03
2022-12-03T07:52:08.269Z,953.06
2022-12-03T07:53:08.210Z,953.06
2022-12-03T07:54:08.206Z,952.99
2022-12-03T07:55:08.184Z,953.01
2022-12-03T07:56:08.184Z,952.99
2022-12-03T07:57:08.168Z,953.01
2022-12-03T07:58:08.151Z,953.01
2022-12-03T07:59:08.135Z,953.00
2022-12-03T08:00:08.121Z,952.99
2022-12-03T08:01:08.171Z,953.01
2022-12-03T08:02:08.214Z,953.00
2022-12-03T08:03:08.076Z,952.97
2022-12-03T08:04:08.076Z,952.96
2022-12-03T08:05:08.049Z,952.88
2022-12-03T08:06:08.052Z,952.90
2022-12-03T08:07:08.063Z,952.86
2022-12-03T08:08:08.348Z,952.87
2022-12-03T08:09:09.977Z,952.90
2022-12-03T08:10:07.999Z,952.93
2022-12-03T08:11:07.965Z,952.93
2022-12-03T08:12:07.978Z,952.95
2022-12-03T08:13:07.979Z,952.90
2022-12-03T08:14:07.943Z,952.90
2022-12-03T08:15:07.923Z,952.89
2022-12-03T08:16:07.948Z,952.85
2022-12-03T08:17:07.921Z,952.88
2022-12-03T08:18:07.887Z,952.91
2022-12-03T08:19:07.889Z,952.93
2022-12-03T08:20:07.866Z,952.92
2022-12-03T08:21:07.841Z,952.94
2022-12-03T08:22:07.884Z,952.92
2022-12-03T08:23:07.809Z,952.93
2022-12-03T08:24:07.820Z,952.94
2022-12-03T08:25:07.781Z,952.95
2022-12-03T08:26:07.778Z,952.95
2022-12-03T08:27:07.799Z,952.94
2022-12-03T08:28:07.884Z,952.96
2022-12-03T08:29:07.809Z,952.96
2022-12-03T08:30:07.725Z,952.93
2022-12-03T08:31:07.768Z,952.90
2022-12-03T08:32:07.832Z,952.92
2022-12-03T08:33:07.708Z,952.91
2022-12-03T08:34:07.681Z,952.91
2022-12-03T08:35:07.662Z,952.88
2022-12-03T08:36:07.651Z,952.91
2022-12-03T08:37:07.654Z,952.92
2022-12-03T08:38:07.629Z,952.91
2022-12-03T08:39:07.691Z,952.90
2022-12-03T08:40:07.596Z,952.89
2022-12-03T08:41:07.610Z,952.85
2022-12-03T08:42:13.440Z,952.84
2022-12-03T08:43:07.549Z,952.82
2022-12-03T08:44:07.583Z,952.75
2022-12-03T08:45:07.517Z,952.77
2022-12-03T08:46:07.586Z,952.72
2022-12-03T08:47:07.502Z,952.73
2022-12-03T08:48:07.511Z,952.76
2022-12-03T08:49:07.500Z,952.80
2022-12-03T08:50:07.473Z,952.77
2022-12-03T08:51:07.445Z,952.72
2022-12-03T08:52:07.449Z,952.76
2022-12-03T08:53:07.420Z,952.74
2022-12-03T08:54:07.453Z,952.74
2022-12-03T08:55:07.402Z,952.75
2022-12-03T08:56:07.385Z,952.75
2022-12-03T08:57:07.370Z,952.71
2022-12-03T08:58:07.390Z,952.73
2022-12-03T08:59:07.369Z,952.73
2022-12-03T09:00:07.348Z,952.70
2022-12-03T09:01:07.342Z,952.69
2022-12-03T09:02:07.331Z,952.74
2022-12-03T09:03:07.293Z,952.73
2022-12-03T09:04:07.366Z,952.75
2022-12-03T09:05:07.266Z,952.79
2022-12-03T09:06:07.267Z,952.76
2022-12-03T09:07:07.233Z,952.78
2022-12-03T09:08:07.365Z,952.81
2022-12-03T09:09:07.239Z,952.80
2022-12-03T09:10:07.218Z,952.84
2022-12-03T09:11:07.233Z,952.81
2022-12-03T09:12:07.219Z,952.80
2022-12-03T09:13:07.191Z,952.83
2022-12-03T09:14:07.145Z,952.86
2022-12-03T09:15:07.146Z,952.85
2022-12-03T09:16:07.142Z,952.81
2022-12-03T09:17:07.235Z,952.81
2022-12-03T09:18:07.125Z,952.81
2022-12-03T09:19:07.085Z,952.85
2022-12-03T09:20:07.074Z,952.87
2022-12-03T09:21:07.056Z,952.83
2022-12-03T09:22:07.073Z,952.83
2022-12-03T09:23:07.024Z,952.82
2022-12-03T09:24:07.016Z,952.82
2022-12-03T09:25:07.015Z,952.81
2022-12-03T09:26:07.006Z,952.77
2022-12-03T09:27:07.011Z,952.72
2022-12-03T09:28:06.967Z,952.78
2022-12-03T09:29:11.895Z,952.77
2022-12-03T09:30:06.947Z,952.71
2022-12-03T09:31:06.928Z,952.69
2022-12-03T09:32:07.049Z,952.62
2022-12-03T09:33:06.927Z,952.64
2022-12-03T09:34:06.893Z,952.66
2022-12-03T09:35:06.875Z,952.60
2022-12-03T09:36:06.886Z,952.55
2022-12-03T09:37:06.842Z,952.57
2022-12-03T09:38:06.880Z,952.57
2022-12-03T09:39:06.816Z,952.58
2022-12-03T09:40:06.828Z,952.59
2022-12-03T09:41:06.792Z,952.51
2022-12-03T09:42:06.779Z,952.50
2022-12-03T09:43:06.753Z,952.52
2022-12-03T09:44:09.662Z,952.47
2022-12-03T09:45:06.766Z,952.47
2022-12-03T09:46:06.794Z,952.47
2022-12-03T09:47:06.705Z,952.43
2022-12-03T09:48:06.697Z,952.44
2022-12-03T09:49:12.265Z,952.43
2022-12-03T09:50:06.681Z,952.43
2022-12-03T09:51:06.651Z,952.44
2022-12-03T09:52:06.648Z,952.42
2022-12-03T09:53:06.624Z,952.41
2022-12-03T09:54:06.834Z,952.42
2022-12-03T09:55:06.609Z,952.37
2022-12-03T09:56:06.622Z,952.40
2022-12-03T09:57:06.585Z,952.39
2022-12-03T09:58:06.590Z,952.41
2022-12-03T09:59:06.557Z,952.36
2022-12-03T10:00:06.541Z,952.36
2022-12-03T10:01:06.627Z,952.37
2022-12-03T10:02:06.583Z,952.31
2022-12-03T10:03:06.496Z,952.34
2022-12-03T10:04:06.549Z,952.35
2022-12-03T10:05:06.563Z,952.31
2022-12-03T10:06:06.488Z,952.32
2022-12-03T10:07:06.460Z,952.24
2022-12-03T10:08:06.508Z,952.27
2022-12-03T10:09:06.401Z,952.22
2022-12-03T10:10:06.406Z,952.18
2022-12-03T10:11:06.387Z,952.20
2022-12-03T10:12:06.414Z,952.22
2022-12-03T10:13:06.361Z,952.23
2022-12-03T10:14:06.387Z,952.17
2022-12-03T10:15:06.328Z,952.17
2022-12-03T10:16:06.351Z,952.16
2022-12-03T10:17:06.379Z,952.14
2022-12-03T10:18:06.299Z,952.14
2022-12-03T10:19:06.275Z,952.10
2022-12-03T10:20:06.292Z,952.07
2022-12-03T10:21:06.247Z,952.04
2022-12-03T10:22:06.244Z,952.03
2022-12-03T10:23:06.225Z,951.97
2022-12-03T10:24:06.243Z,951.95
2022-12-03T10:25:06.195Z,951.94
2022-12-03T10:26:06.190Z,951.93
2022-12-03T10:27:06.200Z,951.90
2022-12-03T10:28:06.171Z,951.93
2022-12-03T10:29:06.172Z,951.91
2022-12-03T10:30:06.137Z,951.89
2022-12-03T10:31:06.156Z,951.84
2022-12-03T10:32:06.109Z,951.85
2022-12-03T10:33:06.133Z,951.79
2022-12-03T10:34:06.086Z,951.80
2022-12-03T10:35:06.072Z,951.80
2022-12-03T10:36:06.049Z,951.81
2022-12-03T10:37:06.034Z,951.80
2022-12-03T10:38:06.057Z,951.80
2022-12-03T10:39:06.003Z,951.76
2022-12-03T10:40:06.014Z,951.80
2022-12-03T10:41:05.982Z,951.81
2022-12-03T10:42:05.961Z,951.78
2022-12-03T10:43:05.958Z,951.76
2022-12-03T10:44:05.975Z,951.74
2022-12-03T10:45:05.930Z,951.79
2022-12-03T10:46:05.949Z,951.77
2022-12-03T10:47:06.182Z,951.76
2022-12-03T10:48:05.887Z,951.72
2022-12-03T10:49:05.911Z,951.82
2022-12-03T10:50:05.859Z,951.80
2022-12-03T10:51:05.856Z,951.81
2022-12-03T10:52:05.866Z,951.77
2022-12-03T10:53:05.855Z,951.78
2022-12-03T10:54:05.803Z,951.72
2022-12-03T10:55:05.793Z,951.74
2022-12-03T10:56:05.773Z,951.69
2022-12-03T10:57:05.774Z,951.70
2022-12-03T10:58:05.768Z,951.70
2022-12-03T10:59:05.734Z,951.73
2022-12-03T11:00:05.711Z,951.75
2022-12-03T11:01:05.798Z,951.75
2022-12-03T11:02:05.766Z,951.76
2022-12-03T11:03:05.718Z,951.78
2022-12-03T11:04:05.798Z,951.79
2022-12-03T11:05:05.663Z,951.77
2022-12-03T11:06:05.638Z,951.72
2022-12-03T11:07:05.676Z,951.75
2022-12-03T11:08:05.694Z,951.73
2022-12-03T11:09:09.107Z,951.71
2022-12-03T11:10:05.596Z,951.74
2022-12-03T11:11:05.600Z,951.72
2022-12-03T11:12:05.586Z,951.74
2022-12-03T11:13:05.548Z,951.69
2022-12-03T11:14:05.550Z,951.69
2022-12-03T11:15:05.521Z,951.68
2022-12-03T11:16:05.635Z,951.64
2022-12-03T11:17:05.523Z,951.62
2022-12-03T11:18:05.499Z,951.57
2022-12-03T11:19:05.469Z,951.56
2022-12-03T11:20:05.442Z,951.58
2022-12-03T11:21:05.458Z,951.59
2022-12-03T11:22:05.532Z,951.54
2022-12-03T11:23:05.415Z,951.56
2022-12-03T11:24:05.399Z,951.49
2022-12-03T11:25:05.387Z,951.49
2022-12-03T11:26:05.377Z,951.52
2022-12-03T11:27:05.353Z,951.50
2022-12-03T11:28:05.362Z,951.48
2022-12-03T11:29:05.335Z,951.48
2022-12-03T11:30:05.317Z,951.44
2022-12-03T11:31:05.365Z,951.45
2022-12-03T11:32:05.284Z,951.44
2022-12-03T11:33:05.292Z,951.45
2022-12-03T11:34:05.291Z,951.46
2022-12-03T11:35:05.255Z,951.43
2022-12-03T11:36:05.240Z,951.41
2022-12-03T11:37:05.221Z,951.42
2022-12-03T11:38:05.227Z,951.42
2022-12-03T11:39:05.229Z,951.43
2022-12-03T11:40:05.178Z,951.43
2022-12-03T11:41:05.205Z,951.48
2022-12-03T11:42:05.148Z,951.56
2022-12-03T11:43:05.174Z,951.53
2022-12-03T11:44:05.138Z,951.55
2022-12-03T11:45:05.116Z,951.51
2022-12-03T11:46:05.120Z,951.54
2022-12-03T11:47:05.208Z,951.53
2022-12-03T11:48:05.072Z,951.52
2022-12-03T11:49:05.070Z,951.49
2022-12-03T11:50:05.059Z,951.47
2022-12-03T11:51:05.036Z,951.54
2022-12-03T11:52:05.009Z,951.51
2022-12-03T11:53:05.000Z,951.48
2022-12-03T11:54:05.025Z,951.44
2022-12-03T11:55:04.983Z,951.39
2022-12-03T11:56:04.954Z,951.38
2022-12-03T11:57:04.989Z,951.32
2022-12-03T11:58:04.942Z,951.29
2022-12-03T11:59:04.922Z,951.23
2022-12-03T12:00:04.932Z,951.28
2022-12-03T12:01:04.933Z,951.27
2022-12-03T12:02:04.875Z,951.31
2022-12-03T12:03:04.882Z,951.24
2022-12-03T12:04:04.910Z,951.25
2022-12-03T12:05:04.849Z,951.19
2022-12-03T12:06:04.858Z,951.15
2022-12-03T12:07:04.825Z,951.15
2022-12-03T12:08:04.840Z,951.15
2022-12-03T12:09:04.799Z,951.13
2022-12-03T12:10:04.789Z,951.09
2022-12-03T12:11:04.793Z,951.13
2022-12-03T12:12:04.755Z,951.10
2022-12-03T12:13:04.744Z,951.07
2022-12-03T12:14:04.748Z,951.11
2022-12-03T12:15:04.739Z,951.16
2022-12-03T12:16:04.737Z,951.15
2022-12-03T12:17:04.809Z,951.12
2022-12-03T12:18:04.700Z,951.10
2022-12-03T12:19:04.661Z,951.09
2022-12-03T12:20:04.631Z,951.14
2022-12-03T12:21:04.629Z,951.10
2022-12-03T12:22:04.638Z,951.10
2022-12-03T12:23:04.612Z,951.04
2022-12-03T12:24:04.589Z,951.08
2022-12-03T12:25:04.577Z,951.04
2022-12-03T12:26:04.584Z,951.05
2022-12-03T12:27:04.554Z,951.07
2022-12-03T12:28:04.533Z,951.02